sensor_id;sensor_type;location;lat;lon;timestamp;P1;durP1;ratioP1;P2;durP2;ratioP2
70505;SDS011;58032;49.820;6.274;2023-06-14T00:02:18;7.05;;;3.88;;
70505;SDS011;58032;49.820;6.274;2023-06-14T00:04:45;5.60;;;3.83;;
70505;SDS011;58032;49.820;6.274;2023-06-14T00:07:12;7.93;;;3.67;;
70505;SDS011;58032;49.820;6.274;2023-06-14T00:09:40;6.63;;;3.83;;
70505;SDS011;58032;49.820;6.274;2023-06-14T00:12:07;6.30;;;3.85;;
70505;SDS011;58032;49.820;6.274;2023-06-14T00:14:35;8.50;;;4.75;;
70505;SDS011;58032;49.820;6.274;2023-06-14T00:17:02;6.20;;;3.55;;
70505;SDS011;58032;49.820;6.274;2023-06-14T00:19:29;7.10;;;3.60;;
70505;SDS011;58032;49.820;6.274;2023-06-14T00:21:59;5.50;;;3.50;;
70505;SDS011;58032;49.820;6.274;2023-06-14T00:24:26;5.93;;;3.25;;
70505;SDS011;58032;49.820;6.274;2023-06-14T00:26:53;6.47;;;3.33;;
70505;SDS011;58032;49.820;6.274;2023-06-14T00:29:21;6.78;;;3.25;;
70505;SDS011;58032;49.820;6.274;2023-06-14T00:31:48;6.65;;;3.78;;
70505;SDS011;58032;49.820;6.274;2023-06-14T00:34:17;7.00;;;3.10;;
70505;SDS011;58032;49.820;6.274;2023-06-14T00:36:44;6.00;;;3.20;;
70505;SDS011;58032;49.820;6.274;2023-06-14T00:39:13;7.15;;;3.50;;
70505;SDS011;58032;49.820;6.274;2023-06-14T00:41:40;6.03;;;3.20;;
70505;SDS011;58032;49.820;6.274;2023-06-14T00:44:07;7.57;;;3.03;;
70505;SDS011;58032;49.820;6.274;2023-06-14T00:46:34;5.50;;;3.22;;
70505;SDS011;58032;49.820;6.274;2023-06-14T00:49:04;5.55;;;3.10;;
70505;SDS011;58032;49.820;6.274;2023-06-14T00:51:31;6.47;;;3.15;;
70505;SDS011;58032;49.820;6.274;2023-06-14T00:53:58;7.40;;;2.97;;
70505;SDS011;58032;49.820;6.274;2023-06-14T00:56:26;6.20;;;3.17;;
70505;SDS011;58032;49.820;6.274;2023-06-14T00:58:54;9.35;;;3.22;;
70505;SDS011;58032;49.820;6.274;2023-06-14T01:01:22;6.97;;;3.33;;
70505;SDS011;58032;49.820;6.274;2023-06-14T01:03:50;5.25;;;2.60;;
70505;SDS011;58032;49.820;6.274;2023-06-14T01:09:24;5.50;;;3.30;;
70505;SDS011;58032;49.820;6.274;2023-06-14T01:12:35;5.60;;;3.08;;
70505;SDS011;58032;49.820;6.274;2023-06-14T01:15:10;7.32;;;3.90;;
70505;SDS011;58032;49.820;6.274;2023-06-14T01:17:40;5.72;;;3.13;;
70505;SDS011;58032;49.820;6.274;2023-06-14T01:20:11;6.70;;;3.50;;
70505;SDS011;58032;49.820;6.274;2023-06-14T01:22:49;7.97;;;3.80;;
70505;SDS011;58032;49.820;6.274;2023-06-14T01:25:19;7.88;;;3.15;;
70505;SDS011;58032;49.820;6.274;2023-06-14T01:27:48;6.50;;;3.58;;
70505;SDS011;58032;49.820;6.274;2023-06-14T01:30:17;6.50;;;3.22;;
70505;SDS011;58032;49.820;6.274;2023-06-14T01:32:47;6.97;;;3.33;;
70505;SDS011;58032;49.820;6.274;2023-06-14T01:35:17;6.28;;;3.05;;
70505;SDS011;58032;49.820;6.274;2023-06-14T01:37:44;7.88;;;3.30;;
70505;SDS011;58032;49.820;6.274;2023-06-14T01:40:17;6.75;;;3.63;;
70505;SDS011;58032;49.820;6.274;2023-06-14T01:42:46;6.97;;;3.42;;
70505;SDS011;58032;49.820;6.274;2023-06-14T01:45:15;5.93;;;3.08;;
70505;SDS011;58032;49.820;6.274;2023-06-14T01:47:43;6.45;;;3.60;;
70505;SDS011;58032;49.820;6.274;2023-06-14T01:50:11;6.53;;;3.40;;
70505;SDS011;58032;49.820;6.274;2023-06-14T01:52:39;6.82;;;3.53;;
70505;SDS011;58032;49.820;6.274;2023-06-14T01:55:06;6.93;;;3.25;;
70505;SDS011;58032;49.820;6.274;2023-06-14T01:57:34;8.15;;;3.40;;
70505;SDS011;58032;49.820;6.274;2023-06-14T02:00:01;6.25;;;3.35;;
70505;SDS011;58032;49.820;6.274;2023-06-14T02:02:38;7.25;;;3.60;;
70505;SDS011;58032;49.820;6.274;2023-06-14T02:05:06;6.03;;;3.55;;
70505;SDS011;58032;49.820;6.274;2023-06-14T02:07:34;7.25;;;3.50;;
70505;SDS011;58032;49.820;6.274;2023-06-14T02:10:01;5.95;;;3.45;;
70505;SDS011;58032;49.820;6.274;2023-06-14T02:12:29;9.88;;;3.85;;
70505;SDS011;58032;49.820;6.274;2023-06-14T02:14:57;7.75;;;3.83;;
70505;SDS011;58032;49.820;6.274;2023-06-14T02:17:24;5.20;;;3.40;;
70505;SDS011;58032;49.820;6.274;2023-06-14T02:19:51;6.85;;;3.28;;
70505;SDS011;58032;49.820;6.274;2023-06-14T02:22:18;7.20;;;3.60;;
70505;SDS011;58032;49.820;6.274;2023-06-14T02:24:47;5.40;;;3.10;;
70505;SDS011;58032;49.820;6.274;2023-06-14T02:27:14;7.85;;;3.63;;
70505;SDS011;58032;49.820;6.274;2023-06-14T02:29:43;6.18;;;3.63;;
70505;SDS011;58032;49.820;6.274;2023-06-14T02:32:10;7.47;;;3.53;;
70505;SDS011;58032;49.820;6.274;2023-06-14T02:34:38;7.63;;;4.28;;
70505;SDS011;58032;49.820;6.274;2023-06-14T02:37:07;6.15;;;3.80;;
70505;SDS011;58032;49.820;6.274;2023-06-14T02:39:34;7.72;;;3.65;;
70505;SDS011;58032;49.820;6.274;2023-06-14T02:42:03;11.82;;;3.88;;
70505;SDS011;58032;49.820;6.274;2023-06-14T02:44:30;9.02;;;3.83;;
70505;SDS011;58032;49.820;6.274;2023-06-14T02:46:59;7.45;;;3.83;;
70505;SDS011;58032;49.820;6.274;2023-06-14T02:49:27;5.65;;;3.80;;
70505;SDS011;58032;49.820;6.274;2023-06-14T02:51:54;7.57;;;3.90;;
70505;SDS011;58032;49.820;6.274;2023-06-14T02:54:21;5.97;;;3.72;;
70505;SDS011;58032;49.820;6.274;2023-06-14T02:56:48;6.15;;;3.40;;
70505;SDS011;58032;49.820;6.274;2023-06-14T02:59:15;8.55;;;4.30;;
70505;SDS011;58032;49.820;6.274;2023-06-14T03:01:42;9.75;;;3.80;;
70505;SDS011;58032;49.820;6.274;2023-06-14T03:04:12;7.60;;;4.10;;
70505;SDS011;58032;49.820;6.274;2023-06-14T03:06:41;9.93;;;4.00;;
70505;SDS011;58032;49.820;6.274;2023-06-14T03:09:11;6.50;;;3.83;;
70505;SDS011;58032;49.820;6.274;2023-06-14T03:11:39;7.63;;;4.07;;
70505;SDS011;58032;49.820;6.274;2023-06-14T03:14:06;7.28;;;4.22;;
70505;SDS011;58032;49.820;6.274;2023-06-14T03:16:36;7.50;;;4.00;;
70505;SDS011;58032;49.820;6.274;2023-06-14T03:19:04;6.43;;;4.03;;
70505;SDS011;58032;49.820;6.274;2023-06-14T03:21:32;6.63;;;3.80;;
70505;SDS011;58032;49.820;6.274;2023-06-14T03:24:01;8.13;;;4.10;;
70505;SDS011;58032;49.820;6.274;2023-06-14T03:26:30;6.80;;;4.00;;
70505;SDS011;58032;49.820;6.274;2023-06-14T03:28:59;9.60;;;3.70;;
70505;SDS011;58032;49.820;6.274;2023-06-14T03:31:25;7.63;;;4.05;;
70505;SDS011;58032;49.820;6.274;2023-06-14T03:33:54;7.63;;;4.10;;
70505;SDS011;58032;49.820;6.274;2023-06-14T03:36:21;9.00;;;4.30;;
70505;SDS011;58032;49.820;6.274;2023-06-14T03:38:49;8.13;;;3.90;;
70505;SDS011;58032;49.820;6.274;2023-06-14T03:41:17;8.57;;;4.10;;
70505;SDS011;58032;49.820;6.274;2023-06-14T03:43:43;6.93;;;4.05;;
70505;SDS011;58032;49.820;6.274;2023-06-14T03:46:10;7.30;;;3.90;;
70505;SDS011;58032;49.820;6.274;2023-06-14T03:48:37;7.25;;;4.22;;
70505;SDS011;58032;49.820;6.274;2023-06-14T03:51:05;7.35;;;4.20;;
70505;SDS011;58032;49.820;6.274;2023-06-14T03:53:32;7.45;;;3.60;;
70505;SDS011;58032;49.820;6.274;2023-06-14T03:55:59;7.80;;;4.20;;
70505;SDS011;58032;49.820;6.274;2023-06-14T03:58:33;7.25;;;4.53;;
70505;SDS011;58032;49.820;6.274;2023-06-14T04:01:00;13.85;;;4.65;;
70505;SDS011;58032;49.820;6.274;2023-06-14T04:03:30;6.80;;;4.30;;
70505;SDS011;58032;49.820;6.274;2023-06-14T04:05:59;7.57;;;4.10;;
70505;SDS011;58032;49.820;6.274;2023-06-14T04:08:26;6.72;;;4.20;;
70505;SDS011;58032;49.820;6.274;2023-06-14T04:10:53;7.65;;;4.00;;
70505;SDS011;58032;49.820;6.274;2023-06-14T04:13:20;10.48;;;4.53;;
70505;SDS011;58032;49.820;6.274;2023-06-14T04:15:47;11.43;;;3.80;;
70505;SDS011;58032;49.820;6.274;2023-06-14T04:18:19;6.50;;;3.97;;
70505;SDS011;58032;49.820;6.274;2023-06-14T04:20:48;8.85;;;4.30;;
70505;SDS011;58032;49.820;6.274;2023-06-14T04:23:16;6.68;;;4.28;;
70505;SDS011;58032;49.820;6.274;2023-06-14T04:25:48;7.50;;;4.00;;
70505;SDS011;58032;49.820;6.274;2023-06-14T04:28:16;6.88;;;4.05;;
70505;SDS011;58032;49.820;6.274;2023-06-14T04:30:44;6.45;;;4.07;;
70505;SDS011;58032;49.820;6.274;2023-06-14T04:33:13;7.32;;;4.05;;
70505;SDS011;58032;49.820;6.274;2023-06-14T04:35:40;7.10;;;4.00;;
70505;SDS011;58032;49.820;6.274;2023-06-14T04:38:08;7.97;;;4.80;;
70505;SDS011;58032;49.820;6.274;2023-06-14T04:40:36;7.93;;;4.50;;
70505;SDS011;58032;49.820;6.274;2023-06-14T04:43:10;7.57;;;4.63;;
70505;SDS011;58032;49.820;6.274;2023-06-14T04:45:44;9.20;;;4.72;;
70505;SDS011;58032;49.820;6.274;2023-06-14T04:48:13;6.82;;;4.50;;
70505;SDS011;58032;49.820;6.274;2023-06-14T04:50:40;7.10;;;4.20;;
70505;SDS011;58032;49.820;6.274;2023-06-14T04:53:07;8.70;;;4.22;;
70505;SDS011;58032;49.820;6.274;2023-06-14T04:55:35;8.73;;;4.63;;
70505;SDS011;58032;49.820;6.274;2023-06-14T04:58:04;7.20;;;4.18;;
70505;SDS011;58032;49.820;6.274;2023-06-14T05:00:31;6.97;;;4.30;;
70505;SDS011;58032;49.820;6.274;2023-06-14T05:02:58;6.73;;;4.67;;
70505;SDS011;58032;49.820;6.274;2023-06-14T05:05:25;6.45;;;4.38;;
70505;SDS011;58032;49.820;6.274;2023-06-14T05:07:52;7.32;;;4.38;;
70505;SDS011;58032;49.820;6.274;2023-06-14T05:10:19;7.22;;;4.20;;
70505;SDS011;58032;49.820;6.274;2023-06-14T05:12:46;7.07;;;4.60;;
70505;SDS011;58032;49.820;6.274;2023-06-14T05:15:16;7.93;;;4.40;;
70505;SDS011;58032;49.820;6.274;2023-06-14T05:17:45;7.85;;;5.00;;
70505;SDS011;58032;49.820;6.274;2023-06-14T05:20:19;7.10;;;4.32;;
70505;SDS011;58032;49.820;6.274;2023-06-14T05:22:46;6.43;;;4.40;;
70505;SDS011;58032;49.820;6.274;2023-06-14T05:25:14;6.38;;;4.22;;
70505;SDS011;58032;49.820;6.274;2023-06-14T05:27:41;6.70;;;4.30;;
70505;SDS011;58032;49.820;6.274;2023-06-14T05:30:08;7.38;;;4.10;;
70505;SDS011;58032;49.820;6.274;2023-06-14T05:32:35;7.50;;;4.10;;
70505;SDS011;58032;49.820;6.274;2023-06-14T05:35:02;7.45;;;4.50;;
70505;SDS011;58032;49.820;6.274;2023-06-14T05:37:30;6.70;;;4.28;;
70505;SDS011;58032;49.820;6.274;2023-06-14T05:39:57;8.70;;;4.67;;
70505;SDS011;58032;49.820;6.274;2023-06-14T05:42:24;8.00;;;4.30;;
70505;SDS011;58032;49.820;6.274;2023-06-14T05:44:51;6.75;;;4.40;;
70505;SDS011;58032;49.820;6.274;2023-06-14T05:47:18;5.82;;;4.50;;
70505;SDS011;58032;49.820;6.274;2023-06-14T05:49:45;8.52;;;4.45;;
70505;SDS011;58032;49.820;6.274;2023-06-14T05:52:12;8.33;;;4.30;;
70505;SDS011;58032;49.820;6.274;2023-06-14T05:54:39;10.10;;;4.53;;
70505;SDS011;58032;49.820;6.274;2023-06-14T05:57:07;7.25;;;4.50;;
70505;SDS011;58032;49.820;6.274;2023-06-14T05:59:34;7.40;;;4.40;;
70505;SDS011;58032;49.820;6.274;2023-06-14T06:02:01;6.78;;;4.18;;
70505;SDS011;58032;49.820;6.274;2023-06-14T06:04:28;7.57;;;3.87;;
70505;SDS011;58032;49.820;6.274;2023-06-14T06:06:55;6.57;;;4.07;;
70505;SDS011;58032;49.820;6.274;2023-06-14T06:09:22;5.68;;;3.58;;
70505;SDS011;58032;49.820;6.274;2023-06-14T06:11:49;6.45;;;4.18;;
70505;SDS011;58032;49.820;6.274;2023-06-14T06:14:18;6.57;;;3.90;;
70505;SDS011;58032;49.820;6.274;2023-06-14T06:16:45;8.23;;;4.93;;
70505;SDS011;58032;49.820;6.274;2023-06-14T06:19:12;10.32;;;3.60;;
70505;SDS011;58032;49.820;6.274;2023-06-14T06:21:39;5.55;;;4.07;;
70505;SDS011;58032;49.820;6.274;2023-06-14T06:24:06;6.32;;;3.53;;
70505;SDS011;58032;49.820;6.274;2023-06-14T06:26:33;7.53;;;3.60;;
70505;SDS011;58032;49.820;6.274;2023-06-14T06:29:00;6.70;;;3.90;;
70505;SDS011;58032;49.820;6.274;2023-06-14T06:31:27;7.55;;;4.03;;
70505;SDS011;58032;49.820;6.274;2023-06-14T06:33:55;6.85;;;2.97;;
70505;SDS011;58032;49.820;6.274;2023-06-14T06:36:22;6.32;;;3.92;;
70505;SDS011;58032;49.820;6.274;2023-06-14T06:38:49;6.07;;;3.25;;
70505;SDS011;58032;49.820;6.274;2023-06-14T06:41:16;8.23;;;3.70;;
70505;SDS011;58032;49.820;6.274;2023-06-14T06:43:43;6.97;;;3.70;;
70505;SDS011;58032;49.820;6.274;2023-06-14T06:46:10;9.77;;;3.78;;
70505;SDS011;58032;49.820;6.274;2023-06-14T06:48:36;7.45;;;3.90;;
70505;SDS011;58032;49.820;6.274;2023-06-14T06:51:03;9.50;;;4.15;;
70505;SDS011;58032;49.820;6.274;2023-06-14T06:53:32;9.20;;;4.13;;
70505;SDS011;58032;49.820;6.274;2023-06-14T06:56:04;6.00;;;3.88;;
70505;SDS011;58032;49.820;6.274;2023-06-14T06:58:31;7.90;;;4.10;;
70505;SDS011;58032;49.820;6.274;2023-06-14T07:00:58;5.88;;;3.17;;
70505;SDS011;58032;49.820;6.274;2023-06-14T07:03:25;5.72;;;3.08;;
70505;SDS011;58032;49.820;6.274;2023-06-14T07:05:53;8.83;;;3.67;;
70505;SDS011;58032;49.820;6.274;2023-06-14T07:08:20;6.68;;;4.43;;
70505;SDS011;58032;49.820;6.274;2023-06-14T07:10:46;5.90;;;3.67;;
70505;SDS011;58032;49.820;6.274;2023-06-14T07:13:13;7.15;;;4.40;;
70505;SDS011;58032;49.820;6.274;2023-06-14T07:15:40;9.15;;;3.83;;
70505;SDS011;58032;49.820;6.274;2023-06-14T07:18:07;7.93;;;4.20;;
70505;SDS011;58032;49.820;6.274;2023-06-14T07:20:35;10.05;;;3.85;;
70505;SDS011;58032;49.820;6.274;2023-06-14T07:23:04;7.25;;;3.47;;
70505;SDS011;58032;49.820;6.274;2023-06-14T07:25:32;6.38;;;3.67;;
70505;SDS011;58032;49.820;6.274;2023-06-14T07:27:59;6.03;;;3.85;;
70505;SDS011;58032;49.820;6.274;2023-06-14T07:30:25;7.03;;;4.13;;
70505;SDS011;58032;49.820;6.274;2023-06-14T07:32:53;8.50;;;3.90;;
70505;SDS011;58032;49.820;6.274;2023-06-14T07:35:21;6.53;;;3.78;;
70505;SDS011;58032;49.820;6.274;2023-06-14T07:37:47;11.73;;;3.88;;
70505;SDS011;58032;49.820;6.274;2023-06-14T07:40:14;7.50;;;4.15;;
70505;SDS011;58032;49.820;6.274;2023-06-14T07:42:41;10.73;;;4.10;;
70505;SDS011;58032;49.820;6.274;2023-06-14T07:45:08;7.20;;;3.63;;
70505;SDS011;58032;49.820;6.274;2023-06-14T07:47:37;7.45;;;4.00;;
70505;SDS011;58032;49.820;6.274;2023-06-14T07:50:13;8.77;;;3.50;;
70505;SDS011;58032;49.820;6.274;2023-06-14T07:52:49;7.10;;;3.80;;
70505;SDS011;58032;49.820;6.274;2023-06-14T07:55:19;9.53;;;4.80;;
70505;SDS011;58032;49.820;6.274;2023-06-14T07:57:46;6.47;;;3.80;;
70505;SDS011;58032;49.820;6.274;2023-06-14T08:00:14;6.30;;;3.40;;
70505;SDS011;58032;49.820;6.274;2023-06-14T08:02:42;5.07;;;3.70;;
70505;SDS011;58032;49.820;6.274;2023-06-14T08:05:10;6.75;;;3.55;;
70505;SDS011;58032;49.820;6.274;2023-06-14T08:07:38;7.63;;;3.50;;
70505;SDS011;58032;49.820;6.274;2023-06-14T08:10:05;7.40;;;3.58;;
70505;SDS011;58032;49.820;6.274;2023-06-14T08:12:33;7.15;;;3.67;;
70505;SDS011;58032;49.820;6.274;2023-06-14T08:15:01;6.18;;;3.60;;
70505;SDS011;58032;49.820;6.274;2023-06-14T08:17:34;7.68;;;3.95;;
70505;SDS011;58032;49.820;6.274;2023-06-14T08:20:02;5.47;;;3.30;;
70505;SDS011;58032;49.820;6.274;2023-06-14T08:22:31;5.72;;;3.95;;
70505;SDS011;58032;49.820;6.274;2023-06-14T08:25:00;7.55;;;4.00;;
70505;SDS011;58032;49.820;6.274;2023-06-14T08:27:28;6.82;;;4.22;;
70505;SDS011;58032;49.820;6.274;2023-06-14T08:29:56;5.70;;;3.83;;
70505;SDS011;58032;49.820;6.274;2023-06-14T08:32:23;6.63;;;3.43;;
70505;SDS011;58032;49.820;6.274;2023-06-14T08:34:50;7.10;;;3.75;;
70505;SDS011;58032;49.820;6.274;2023-06-14T08:37:25;6.22;;;3.88;;
70505;SDS011;58032;49.820;6.274;2023-06-14T08:39:53;10.18;;;3.50;;
70505;SDS011;58032;49.820;6.274;2023-06-14T08:42:20;5.70;;;3.60;;
70505;SDS011;58032;49.820;6.274;2023-06-14T08:44:56;6.60;;;4.00;;
70505;SDS011;58032;49.820;6.274;2023-06-14T08:47:23;7.85;;;3.60;;
70505;SDS011;58032;49.820;6.274;2023-06-14T08:49:53;6.70;;;3.67;;
70505;SDS011;58032;49.820;6.274;2023-06-14T08:52:23;7.03;;;4.25;;
70505;SDS011;58032;49.820;6.274;2023-06-14T08:54:56;7.45;;;3.85;;
70505;SDS011;58032;49.820;6.274;2023-06-14T08:57:24;7.13;;;4.53;;
70505;SDS011;58032;49.820;6.274;2023-06-14T08:59:52;9.23;;;4.50;;
70505;SDS011;58032;49.820;6.274;2023-06-14T09:02:20;6.88;;;4.10;;
70505;SDS011;58032;49.820;6.274;2023-06-14T09:04:48;6.32;;;3.55;;
70505;SDS011;58032;49.820;6.274;2023-06-14T09:07:18;6.22;;;4.00;;
70505;SDS011;58032;49.820;6.274;2023-06-14T09:09:45;6.33;;;3.87;;
70505;SDS011;58032;49.820;6.274;2023-06-14T09:12:18;7.32;;;4.20;;
70505;SDS011;58032;49.820;6.274;2023-06-14T09:14:45;5.97;;;3.75;;
70505;SDS011;58032;49.820;6.274;2023-06-14T09:17:13;5.18;;;3.90;;
70505;SDS011;58032;49.820;6.274;2023-06-14T09:19:39;11.88;;;4.35;;
70505;SDS011;58032;49.820;6.274;2023-06-14T09:22:07;16.60;;;4.00;;
70505;SDS011;58032;49.820;6.274;2023-06-14T09:24:38;7.05;;;3.97;;
70505;SDS011;58032;49.820;6.274;2023-06-14T09:27:06;5.22;;;3.80;;
70505;SDS011;58032;49.820;6.274;2023-06-14T09:29:33;9.02;;;4.10;;
70505;SDS011;58032;49.820;6.274;2023-06-14T09:32:00;7.97;;;4.18;;
70505;SDS011;58032;49.820;6.274;2023-06-14T09:34:26;5.40;;;4.10;;
70505;SDS011;58032;49.820;6.274;2023-06-14T09:36:53;7.82;;;4.07;;
70505;SDS011;58032;49.820;6.274;2023-06-14T09:39:20;5.38;;;3.50;;
70505;SDS011;58032;49.820;6.274;2023-06-14T09:41:47;7.65;;;4.13;;
70505;SDS011;58032;49.820;6.274;2023-06-14T09:44:14;6.05;;;4.15;;
70505;SDS011;58032;49.820;6.274;2023-06-14T09:46:44;6.87;;;3.93;;
70505;SDS011;58032;49.820;6.274;2023-06-14T09:49:11;10.13;;;3.95;;
70505;SDS011;58032;49.820;6.274;2023-06-14T09:51:42;7.18;;;4.22;;
70505;SDS011;58032;49.820;6.274;2023-06-14T09:54:15;5.30;;;3.63;;
70505;SDS011;58032;49.820;6.274;2023-06-14T09:56:44;13.88;;;4.38;;
70505;SDS011;58032;49.820;6.274;2023-06-14T09:59:13;6.37;;;3.97;;
70505;SDS011;58032;49.820;6.274;2023-06-14T10:01:43;7.30;;;3.38;;
70505;SDS011;58032;49.820;6.274;2023-06-14T10:04:10;7.20;;;3.72;;
70505;SDS011;58032;49.820;6.274;2023-06-14T10:06:43;7.85;;;3.40;;
70505;SDS011;58032;49.820;6.274;2023-06-14T10:09:12;6.95;;;3.55;;
70505;SDS011;58032;49.820;6.274;2023-06-14T10:11:39;9.27;;;3.80;;
70505;SDS011;58032;49.820;6.274;2023-06-14T10:14:10;6.07;;;3.67;;
70505;SDS011;58032;49.820;6.274;2023-06-14T10:17:22;5.55;;;3.85;;
70505;SDS011;58032;49.820;6.274;2023-06-14T10:19:41;7.07;;;3.60;;
70505;SDS011;58032;49.820;6.274;2023-06-14T10:22:14;5.70;;;3.50;;
70505;SDS011;58032;49.820;6.274;2023-06-14T10:24:46;7.00;;;3.93;;
70505;SDS011;58032;49.820;6.274;2023-06-14T10:27:14;5.45;;;3.45;;
70505;SDS011;58032;49.820;6.274;2023-06-14T10:30:02;6.53;;;3.88;;
70505;SDS011;58032;49.820;6.274;2023-06-14T10:32:31;6.03;;;3.50;;
70505;SDS011;58032;49.820;6.274;2023-06-14T10:35:04;7.95;;;3.60;;
70505;SDS011;58032;49.820;6.274;2023-06-14T10:37:33;7.53;;;3.70;;
70505;SDS011;58032;49.820;6.274;2023-06-14T10:40:00;5.95;;;3.65;;
70505;SDS011;58032;49.820;6.274;2023-06-14T10:42:27;7.68;;;3.35;;
70505;SDS011;58032;49.820;6.274;2023-06-14T10:44:58;6.40;;;4.10;;
70505;SDS011;58032;49.820;6.274;2023-06-14T10:47:26;7.65;;;4.13;;
70505;SDS011;58032;49.820;6.274;2023-06-14T10:49:54;4.30;;;2.97;;
70505;SDS011;58032;49.820;6.274;2023-06-14T10:52:24;7.65;;;3.75;;
70505;SDS011;58032;49.820;6.274;2023-06-14T10:55:13;5.90;;;4.10;;
70505;SDS011;58032;49.820;6.274;2023-06-14T10:57:42;6.97;;;3.80;;
70505;SDS011;58032;49.820;6.274;2023-06-14T11:00:21;8.27;;;3.38;;
70505;SDS011;58032;49.820;6.274;2023-06-14T11:06:01;7.63;;;3.47;;
70505;SDS011;58032;49.820;6.274;2023-06-14T11:11:45;8.02;;;4.00;;
70505;SDS011;58032;49.820;6.274;2023-06-14T11:14:12;8.15;;;3.13;;
70505;SDS011;58032;49.820;6.274;2023-06-14T11:16:39;9.67;;;4.03;;
70505;SDS011;58032;49.820;6.274;2023-06-14T11:19:06;8.85;;;3.25;;
70505;SDS011;58032;49.820;6.274;2023-06-14T11:21:34;5.20;;;3.42;;
70505;SDS011;58032;49.820;6.274;2023-06-14T11:24:01;6.97;;;3.75;;
70505;SDS011;58032;49.820;6.274;2023-06-14T11:26:28;4.32;;;2.97;;
70505;SDS011;58032;49.820;6.274;2023-06-14T11:28:56;6.23;;;2.83;;
70505;SDS011;58032;49.820;6.274;2023-06-14T11:31:25;4.82;;;3.08;;
70505;SDS011;58032;49.820;6.274;2023-06-14T11:33:53;4.65;;;2.90;;
70505;SDS011;58032;49.820;6.274;2023-06-14T11:36:22;6.10;;;3.50;;
70505;SDS011;58032;49.820;6.274;2023-06-14T11:41:38;7.80;;;3.87;;
70505;SDS011;58032;49.820;6.274;2023-06-14T11:44:07;4.38;;;2.75;;
70505;SDS011;58032;49.820;6.274;2023-06-14T11:46:34;7.55;;;3.47;;
70505;SDS011;58032;49.820;6.274;2023-06-14T11:49:02;6.72;;;3.38;;
70505;SDS011;58032;49.820;6.274;2023-06-14T11:51:31;7.00;;;3.22;;
70505;SDS011;58032;49.820;6.274;2023-06-14T11:53:59;12.80;;;3.40;;
70505;SDS011;58032;49.820;6.274;2023-06-14T11:56:29;4.63;;;3.08;;
70505;SDS011;58032;49.820;6.274;2023-06-14T11:58:59;5.72;;;2.97;;
70505;SDS011;58032;49.820;6.274;2023-06-14T12:01:29;7.45;;;3.53;;
70505;SDS011;58032;49.820;6.274;2023-06-14T12:03:57;8.15;;;2.88;;
70505;SDS011;58032;49.820;6.274;2023-06-14T12:06:26;7.07;;;3.03;;
70505;SDS011;58032;49.820;6.274;2023-06-14T12:08:55;5.65;;;3.05;;
70505;SDS011;58032;49.820;6.274;2023-06-14T12:11:23;6.55;;;2.80;;
70505;SDS011;58032;49.820;6.274;2023-06-14T12:13:56;5.78;;;3.00;;
70505;SDS011;58032;49.820;6.274;2023-06-14T12:16:29;6.07;;;2.95;;
70505;SDS011;58032;49.820;6.274;2023-06-14T12:19:00;6.60;;;2.87;;
70505;SDS011;58032;49.820;6.274;2023-06-14T12:21:28;6.45;;;3.45;;
70505;SDS011;58032;49.820;6.274;2023-06-14T12:23:55;5.68;;;2.85;;
70505;SDS011;58032;49.820;6.274;2023-06-14T12:26:22;6.40;;;3.50;;
70505;SDS011;58032;49.820;6.274;2023-06-14T12:28:51;6.95;;;3.53;;
70505;SDS011;58032;49.820;6.274;2023-06-14T12:31:18;5.07;;;3.23;;
70505;SDS011;58032;49.820;6.274;2023-06-14T12:33:46;5.75;;;3.20;;
70505;SDS011;58032;49.820;6.274;2023-06-14T12:36:15;5.05;;;2.72;;
70505;SDS011;58032;49.820;6.274;2023-06-14T12:38:43;8.00;;;3.30;;
70505;SDS011;58032;49.820;6.274;2023-06-14T12:41:10;7.68;;;3.42;;
70505;SDS011;58032;49.820;6.274;2023-06-14T12:43:36;4.63;;;3.17;;
70505;SDS011;58032;49.820;6.274;2023-06-14T12:46:04;6.70;;;3.47;;
70505;SDS011;58032;49.820;6.274;2023-06-14T12:48:31;6.35;;;3.05;;
70505;SDS011;58032;49.820;6.274;2023-06-14T12:50:58;4.65;;;3.15;;
70505;SDS011;58032;49.820;6.274;2023-06-14T12:53:25;5.63;;;3.65;;
70505;SDS011;58032;49.820;6.274;2023-06-14T12:55:52;5.33;;;2.93;;
70505;SDS011;58032;49.820;6.274;2023-06-14T12:58:19;5.30;;;3.25;;
70505;SDS011;58032;49.820;6.274;2023-06-14T13:00:49;5.55;;;3.00;;
70505;SDS011;58032;49.820;6.274;2023-06-14T13:03:16;5.95;;;2.97;;
70505;SDS011;58032;49.820;6.274;2023-06-14T13:05:43;6.70;;;2.97;;
70505;SDS011;58032;49.820;6.274;2023-06-14T13:08:10;6.37;;;3.23;;
70505;SDS011;58032;49.820;6.274;2023-06-14T13:10:37;4.68;;;3.30;;
70505;SDS011;58032;49.820;6.274;2023-06-14T13:13:04;5.32;;;2.78;;
70505;SDS011;58032;49.820;6.274;2023-06-14T13:15:31;5.63;;;3.35;;
70505;SDS011;58032;49.820;6.274;2023-06-14T13:17:58;6.05;;;3.10;;
70505;SDS011;58032;49.820;6.274;2023-06-14T13:20:25;4.20;;;2.37;;
70505;SDS011;58032;49.820;6.274;2023-06-14T13:23:00;6.63;;;3.45;;
70505;SDS011;58032;49.820;6.274;2023-06-14T13:25:28;4.32;;;2.78;;
70505;SDS011;58032;49.820;6.274;2023-06-14T13:27:55;5.53;;;3.17;;
70505;SDS011;58032;49.820;6.274;2023-06-14T13:30:24;6.90;;;3.58;;
70505;SDS011;58032;49.820;6.274;2023-06-14T13:32:52;5.97;;;3.10;;
70505;SDS011;58032;49.820;6.274;2023-06-14T13:35:19;7.30;;;2.88;;
70505;SDS011;58032;49.820;6.274;2023-06-14T13:37:46;5.40;;;2.78;;
70505;SDS011;58032;49.820;6.274;2023-06-14T13:40:13;9.07;;;2.90;;
70505;SDS011;58032;49.820;6.274;2023-06-14T13:42:45;8.32;;;2.90;;
70505;SDS011;58032;49.820;6.274;2023-06-14T13:45:13;5.57;;;2.77;;
70505;SDS011;58032;49.820;6.274;2023-06-14T13:47:40;4.03;;;2.45;;
70505;SDS011;58032;49.820;6.274;2023-06-14T13:50:07;7.60;;;2.60;;
70505;SDS011;58032;49.820;6.274;2023-06-14T13:52:34;5.00;;;2.70;;
70505;SDS011;58032;49.820;6.274;2023-06-14T13:55:02;4.55;;;2.70;;
70505;SDS011;58032;49.820;6.274;2023-06-14T13:57:29;6.33;;;2.50;;
70505;SDS011;58032;49.820;6.274;2023-06-14T13:59:55;5.95;;;2.83;;
70505;SDS011;58032;49.820;6.274;2023-06-14T14:02:38;4.75;;;2.47;;
70505;SDS011;58032;49.820;6.274;2023-06-14T14:05:06;5.95;;;2.55;;
70505;SDS011;58032;49.820;6.274;2023-06-14T14:07:33;5.72;;;2.10;;
70505;SDS011;58032;49.820;6.274;2023-06-14T14:10:02;6.10;;;3.07;;
70505;SDS011;58032;49.820;6.274;2023-06-14T14:12:30;6.85;;;2.60;;
70505;SDS011;58032;49.820;6.274;2023-06-14T14:14:56;3.92;;;2.25;;
70505;SDS011;58032;49.820;6.274;2023-06-14T14:17:24;4.47;;;2.30;;
70505;SDS011;58032;49.820;6.274;2023-06-14T14:19:50;3.55;;;2.30;;
70505;SDS011;58032;49.820;6.274;2023-06-14T14:22:18;6.13;;;2.37;;
70505;SDS011;58032;49.820;6.274;2023-06-14T14:24:45;5.18;;;2.30;;
70505;SDS011;58032;49.820;6.274;2023-06-14T14:27:12;4.15;;;2.47;;
70505;SDS011;58032;49.820;6.274;2023-06-14T14:29:39;4.50;;;2.28;;
70505;SDS011;58032;49.820;6.274;2023-06-14T14:32:05;5.65;;;2.30;;
70505;SDS011;58032;49.820;6.274;2023-06-14T14:34:33;6.03;;;2.30;;
70505;SDS011;58032;49.820;6.274;2023-06-14T14:37:00;3.60;;;2.03;;
70505;SDS011;58032;49.820;6.274;2023-06-14T14:39:26;5.40;;;2.20;;
70505;SDS011;58032;49.820;6.274;2023-06-14T14:41:54;4.72;;;2.30;;
70505;SDS011;58032;49.820;6.274;2023-06-14T14:44:21;5.30;;;2.40;;
70505;SDS011;58032;49.820;6.274;2023-06-14T14:46:48;5.83;;;2.60;;
70505;SDS011;58032;49.820;6.274;2023-06-14T14:49:15;5.47;;;2.47;;
70505;SDS011;58032;49.820;6.274;2023-06-14T14:51:42;7.05;;;2.40;;
70505;SDS011;58032;49.820;6.274;2023-06-14T14:54:09;5.30;;;2.70;;
70505;SDS011;58032;49.820;6.274;2023-06-14T14:56:36;6.93;;;2.50;;
70505;SDS011;58032;49.820;6.274;2023-06-14T14:59:04;8.23;;;2.60;;
70505;SDS011;58032;49.820;6.274;2023-06-14T15:01:44;5.35;;;2.38;;
70505;SDS011;58032;49.820;6.274;2023-06-14T15:04:24;5.65;;;2.67;;
70505;SDS011;58032;49.820;6.274;2023-06-14T15:07:01;3.55;;;2.20;;
70505;SDS011;58032;49.820;6.274;2023-06-14T15:09:40;4.50;;;2.60;;